Time;durP1;ratioP1;P1;durP2;ratioP2;P2;SDS_P1;SDS_P2;PMS_P1;PMS_P2;Temp;Humidity;BMP_temperature;BMP_pressure;BME280_temperature;BME280_humidity;BME280_pressure;Samples;Min_cycle;Max_cycle;Signal;HPM_P1;HPM_P2
2022/07/06 00:00:23;;;;;;;;;;;;;;;22.35;54.69;101229.19;2075897;28;792;-46
2022/07/06 00:01:24;;;;;;;;;;;;;;;22.31;55.18;101233.84;2075890;28;863;-47
2022/07/06 00:02:24;;;;;;;;;;;;;;;22.29;55.61;101234.81;2071008;28;1492;-48
2022/07/06 00:03:24;;;;;;;;;;;;;;;22.28;55.42;101233.94;2067814;28;862;-47
2022/07/06 00:04:24;;;;;;;;;;;;;;;22.32;55.68;101234.69;2072283;28;982;-50
2022/07/06 00:05:25;;;;;;;;;;;;;;;22.31;55.14;101233.84;2075921;28;803;-48
2022/07/06 00:06:25;;;;;;;;;;;;;;;22.32;55.23;101238.28;2075850;28;986;-50
2022/07/06 00:07:25;;;;;;;;;;;;;;;22.35;55.25;101243.59;2075843;28;1072;-48
2022/07/06 00:08:26;;;;;;;;;;;;;;;22.35;55.68;101238.19;2075871;28;792;-49
2022/07/06 00:09:26;;;;;;;;;;;;;;;22.35;55.36;101240.00;2074728;28;902;-50
2022/07/06 00:10:26;;;;;;;;;;;;;;;22.33;54.60;101233.75;2075783;28;1017;-49
2022/07/06 00:11:26;;;;;;;;;;;;;;;22.28;55.60;101228.53;2075836;28;877;-48
2022/07/06 00:12:26;;;;;;;;;;;;;;;22.25;54.62;101234.03;2075746;28;1966;-47
2022/07/06 00:13:27;;;;;;;;;;;;;;;22.23;54.41;101233.22;2075757;28;768;-47
2022/07/06 00:14:27;;;;;;;;;;;;;;;22.21;54.47;101229.69;2074869;28;912;-47
2022/07/06 00:15:27;;;;;;;;;;;;;;;22.17;54.17;101236.13;2075767;28;800;-48
2022/07/06 00:16:28;;;;;;;;;;;;;;;22.13;53.83;101223.66;2075797;28;811;-48
2022/07/06 00:17:28;;;;;;;;;;;;;;;22.14;53.86;101228.13;2075096;28;828;-48
2022/07/06 00:18:28;;;;;;;;;;;;;;;22.12;53.48;101228.16;2075200;28;930;-47
2022/07/06 00:19:28;;;;;;;;;;;;;;;22.09;53.30;101230.09;2074672;28;978;-47
2022/07/06 00:20:28;;;;;;;;;;;;;;;22.13;52.75;101229.91;2075731;28;1045;-47
2022/07/06 00:21:29;;;;;;;;;;;;;;;22.14;52.58;101228.13;2075754;28;815;-48
2022/07/06 00:22:29;;;;;;;;;;;;;;;22.15;52.74;101230.75;2075693;28;982;-48
2022/07/06 00:23:29;;;;;;;;;;;;;;;22.17;51.83;101222.63;2075719;28;950;-51
2022/07/06 00:24:29;;;;;;;;;;;;;;;22.24;51.70;101229.56;2074677;28;1029;-49
2022/07/06 00:25:29;;;;;;;;;;;;;;;22.25;50.96;101225.94;2075698;28;819;-48
2022/07/06 00:26:29;;;;;;;;;;;;;;;22.27;51.20;101221.38;2075718;28;859;-48
2022/07/06 00:27:29;;;;;;;;;;;;;;;22.26;50.63;101227.72;2075712;28;1032;-50
2022/07/06 00:28:30;;;;;;;;;;;;;;;22.24;50.04;101226.88;2075717;28;985;-48
2022/07/06 00:29:30;;;;;;;;;;;;;;;22.18;50.74;101225.25;2074761;28;1059;-48
2022/07/06 00:30:30;;;;;;;;;;;;;;;22.13;50.91;101229.91;2075695;28;801;-48
2022/07/06 00:31:30;;;;;;;;;;;;;;;22.15;50.11;101229.88;2075716;28;821;-47
2022/07/06 00:32:30;;;;;;;;;;;;;;;22.09;50.13;101228.25;2075613;28;1941;-49
2022/07/06 00:33:31;;;;;;;;;;;;;;;22.04;50.29;101223.03;2075709;28;1036;-47
2022/07/06 00:34:31;;;;;;;;;;;;;;;22.04;51.03;101230.25;2074601;28;873;-48
2022/07/06 00:35:31;;;;;;;;;;;;;;;22.02;50.18;101219.50;2075641;28;788;-48
2022/07/06 00:36:31;;;;;;;;;;;;;;;22.01;50.21;101225.81;2075621;28;1017;-47
2022/07/06 00:37:31;;;;;;;;;;;;;;;21.97;50.50;101218.78;2075589;28;990;-49
2022/07/06 00:38:31;;;;;;;;;;;;;;;22.09;50.02;101216.59;2075638;28;1219;-51
2022/07/06 00:39:32;;;;;;;;;;;;;;;22.16;49.69;101221.72;2074541;28;1120;-48
2022/07/06 00:40:32;;;;;;;;;;;;;;;22.18;49.74;101219.00;2075751;28;800;-48
2022/07/06 00:41:32;;;;;;;;;;;;;;;22.16;50.82;101220.84;2075612;28;982;-49
2022/07/06 00:42:42;;;;;;;;;;;;;;;22.20;49.78;101228.78;2075635;28;858;-50
2022/07/06 00:43:46;;;;;;;;;;;;;;;22.17;50.36;101220.78;2075568;28;831;-48
2022/07/06 00:44:46;;;;;;;;;;;;;;;22.15;51.02;101219.09;2074513;28;1021;-49
2022/07/06 00:45:46;;;;;;;;;;;;;;;22.11;50.58;101218.28;2074938;28;785;-48
2022/07/06 00:46:46;;;;;;;;;;;;;;;22.09;50.44;101219.28;2075365;28;851;-47
2022/07/06 00:47:47;;;;;;;;;;;;;;;22.10;50.56;101221.06;2075677;28;721;-47
2022/07/06 00:48:47;;;;;;;;;;;;;;;22.06;51.08;101214.91;2075198;28;1073;-48
2022/07/06 00:51:06;;;;;;;;;;;;;;;22.10;50.88;101218.38;2075580;28;689;-48
2022/07/06 00:52:06;;;;;;;;;;;;;;;22.13;50.75;101219.13;2075481;28;1953;-49
2022/07/06 00:53:07;;;;;;;;;;;;;;;22.14;51.21;101217.31;2075507;28;820;-51
2022/07/06 00:54:07;;;;;;;;;;;;;;;22.18;50.90;101219.84;2074517;28;870;-48
2022/07/06 00:55:08;;;;;;;;;;;;;;;22.25;50.54;101220.53;2075492;28;847;-48
2022/07/06 00:56:09;;;;;;;;;;;;;;;22.26;51.19;101211.50;2075360;28;1292;-49
2022/07/06 00:57:09;;;;;;;;;;;;;;;22.25;50.84;101215.16;2075477;28;776;-49
2022/07/06 00:58:09;;;;;;;;;;;;;;;22.25;51.25;101214.25;2075440;28;978;-48
2022/07/06 00:59:09;;;;;;;;;;;;;;;22.17;51.89;101214.53;2074355;28;936;-47
2022/07/06 01:00:11;;;;;;;;;;;;;;;22.16;51.16;101210.94;2075473;28;985;-47
2022/07/06 01:01:11;;;;;;;;;;;;;;;22.14;51.20;101220.03;2075425;28;831;-48
2022/07/06 01:02:11;;;;;;;;;;;;;;;22.11;51.10;101206.63;2075472;28;916;-48
2022/07/06 01:03:11;;;;;;;;;;;;;;;22.07;52.17;101213.97;2075517;28;827;-48
2022/07/06 01:04:12;;;;;;;;;;;;;;;22.03;52.10;101210.47;2074346;28;1123;-49
2022/07/06 01:05:13;;;;;;;;;;;;;;;22.09;51.52;101209.38;2075440;28;1040;-50
2022/07/06 01:06:13;;;;;;;;;;;;;;;22.14;51.35;101207.41;2075394;28;925;-48
2022/07/06 01:07:14;;;;;;;;;;;;;;;22.16;51.49;101207.38;2075439;28;1033;-48
2022/07/06 01:08:15;;;;;;;;;;;;;;;22.17;51.39;101209.13;2075395;28;1060;-49
2022/07/06 01:09:16;;;;;;;;;;;;;;;22.19;51.34;101215.34;2074358;28;1007;-50
2022/07/06 01:10:17;;;;;;;;;;;;;;;22.14;51.79;101210.09;2075412;28;1001;-48
2022/07/06 01:11:18;;;;;;;;;;;;;;;22.14;51.48;101212.78;2075389;28;941;-48
2022/07/06 01:12:18;;;;;;;;;;;;;;;22.12;51.66;101219.19;2075343;28;1907;-48
2022/07/06 01:13:18;;;;;;;;;;;;;;;22.05;51.87;101213.13;2075322;28;886;-47
2022/07/06 01:14:19;;;;;;;;;;;;;;;22.03;52.74;101212.31;2074263;28;918;-47
2022/07/06 01:15:21;;;;;;;;;;;;;;;22.04;51.70;101211.38;2075373;28;985;-47
2022/07/06 01:16:21;;;;;;;;;;;;;;;22.03;52.51;101220.41;2075378;28;877;-47
2022/07/06 01:17:21;;;;;;;;;;;;;;;22.02;52.02;101210.53;2075279;28;1040;-48
2022/07/06 01:18:22;;;;;;;;;;;;;;;22.02;51.87;101210.53;2075348;28;795;-47
2022/07/06 01:19:22;;;;;;;;;;;;;;;21.99;52.31;101210.66;2074227;28;826;-48
2022/07/06 01:20:23;;;;;;;;;;;;;;;21.99;52.07;101216.03;2075464;28;803;-47
2022/07/06 01:21:23;;;;;;;;;;;;;;;22.01;52.92;101209.66;2075344;28;827;-49
2022/07/06 01:22:24;;;;;;;;;;;;;;;22.05;51.79;101215.84;2075338;28;879;-48
2022/07/06 01:23:24;;;;;;;;;;;;;;;22.11;51.55;101217.44;2075325;28;947;-50
2022/07/06 01:24:24;;;;;;;;;;;;;;;22.17;51.62;101212.69;2074222;28;992;-48
2022/07/06 01:25:24;;;;;;;;;;;;;;;22.17;50.81;101206.44;2075259;28;1000;-49
2022/07/06 01:26:24;;;;;;;;;;;;;;;22.17;50.74;101206.44;2075236;28;989;-47
2022/07/06 01:27:25;;;;;;;;;;;;;;;22.21;50.90;101216.19;2075302;28;875;-48
2022/07/06 01:28:25;;;;;;;;;;;;;;;22.20;50.54;101217.97;2075199;28;1009;-48
2022/07/06 01:29:25;;;;;;;;;;;;;;;22.11;50.99;101220.13;2074144;28;1002;-47
2022/07/06 01:30:26;;;;;;;;;;;;;;;22.11;50.06;101210.19;2075336;28;1056;-47
2022/07/06 01:31:27;;;;;;;;;;;;;;;22.13;50.50;101210.16;2075266;28;775;-48
2022/07/06 01:32:27;;;;;;;;;;;;;;;22.04;50.15;101209.53;2074510;28;1993;-47
2022/07/06 01:33:27;;;;;;;;;;;;;;;22.03;50.02;101209.59;2074604;28;891;-46
2022/07/06 01:34:27;;;;;;;;;;;;;;;22.03;50.06;101215.00;2074106;28;1064;-48
2022/07/06 01:35:29;;;;;;;;;;;;;;;22.02;49.62;101205.16;2075204;28;835;-47
2022/07/06 01:36:29;;;;;;;;;;;;;;;22.00;50.54;101217.81;2075193;28;872;-49
2022/07/06 01:37:29;;;;;;;;;;;;;;;22.04;49.57;101214.94;2075132;28;774;-47
2022/07/06 01:38:29;;;;;;;;;;;;;;;22.03;49.54;101212.31;2074501;28;793;-50
2022/07/06 01:39:29;;;;;;;;;;;;;;;22.09;49.56;101213.91;2073550;28;1124;-49
2022/07/06 01:40:29;;;;;;;;;;;;;;;22.13;49.30;101212.88;2075203;28;835;-49
2022/07/06 01:41:30;;;;;;;;;;;;;;;22.12;49.40;101217.38;2075197;28;883;-48
2022/07/06 01:42:30;;;;;;;;;;;;;;;22.15;49.51;101217.25;2075223;28;989;-51
2022/07/06 01:43:30;;;;;;;;;;;;;;;22.15;49.02;101211.88;2075179;28;1049;-48
2022/07/06 01:44:30;;;;;;;;;;;;;;;22.05;50.14;101215.84;2074164;28;841;-47
2022/07/06 01:45:31;;;;;;;;;;;;;;;22.04;49.65;101214.94;2075147;28;1029;-48
2022/07/06 01:46:31;;;;;;;;;;;;;;;22.05;50.17;101219.41;2075140;28;1079;-48
2022/07/06 01:47:32;;;;;;;;;;;;;;;22.01;49.81;101212.34;2075159;28;1033;-47
2022/07/06 01:48:33;;;;;;;;;;;;;;;22.00;50.32;101215.97;2075274;28;886;-48
2022/07/06 01:49:33;;;;;;;;;;;;;;;22.01;50.33;101211.47;2073983;28;874;-48
2022/07/06 01:50:33;;;;;;;;;;;;;;;22.02;50.12;101208.72;2074426;28;773;-47
2022/07/06 01:51:33;;;;;;;;;;;;;;;22.02;50.16;101210.53;2074507;28;904;-47
2022/07/06 01:52:33;;;;;;;;;;;;;;;22.09;49.89;101217.47;2075012;28;1906;-49
2022/07/06 01:53:33;;;;;;;;;;;;;;;22.10;51.01;101212.97;2075105;28;751;-51
2022/07/06 01:54:34;;;;;;;;;;;;;;;22.14;50.46;101207.41;2074061;28;881;-49
2022/07/06 01:55:34;;;;;;;;;;;;;;;22.15;49.81;101205.59;2074809;28;1198;-49
2022/07/06 01:56:34;;;;;;;;;;;;;;;22.17;50.18;101212.69;2075142;28;765;-48
2022/07/06 01:57:34;;;;;;;;;;;;;;;22.17;50.52;101217.22;2074953;28;1215;-48
2022/07/06 01:58:35;;;;;;;;;;;;;;;22.15;50.73;101217.25;2075077;28;749;-48
2022/07/06 01:59:35;;;;;;;;;;;;;;;22.12;50.41;101211.97;2073965;28;1098;-47
2022/07/06 02:00:35;;;;;;;;;;;;;;;22.13;50.26;101207.47;2075066;28;788;-47
2022/07/06 02:01:35;;;;;;;;;;;;;;;22.05;51.03;101208.59;2075011;28;856;-47
2022/07/06 02:02:35;;;;;;;;;;;;;;;22.02;51.12;101208.72;2075005;28;1029;-47
2022/07/06 02:03:36;;;;;;;;;;;;;;;22.04;51.15;101208.69;2075145;28;804;-47
2022/07/06 02:04:36;;;;;;;;;;;;;;;22.09;51.18;101213.91;2073954;28;1074;-50
2022/07/06 02:05:36;;;;;;;;;;;;;;;22.11;50.56;101214.72;2075001;28;911;-49
2022/07/06 02:06:36;;;;;;;;;;;;;;;22.11;51.14;101212.03;2074982;28;982;-49
2022/07/06 02:07:36;;;;;;;;;;;;;;;22.15;50.88;101211.00;2074967;28;1002;-49
2022/07/06 02:08:37;;;;;;;;;;;;;;;22.14;50.92;101207.41;2074978;28;838;-49
2022/07/06 02:09:37;;;;;;;;;;;;;;;22.10;51.27;101210.28;2073973;28;877;-50
2022/07/06 02:10:37;;;;;;;;;;;;;;;22.13;51.07;101202.94;2075018;28;815;-48
2022/07/06 02:11:37;;;;;;;;;;;;;;;22.12;51.05;101203.00;2075083;28;815;-48
2022/07/06 02:12:38;;;;;;;;;;;;;;;22.06;51.98;101204.13;2074919;28;1965;-48
2022/07/06 02:13:38;;;;;;;;;;;;;;;22.04;51.30;101205.97;2075015;28;772;-48
2022/07/06 02:14:38;;;;;;;;;;;;;;;22.03;51.51;101205.09;2073929;28;894;-47
2022/07/06 02:15:38;;;;;;;;;;;;;;;22.03;51.58;101205.09;2074965;28;974;-47
2022/07/06 02:16:38;;;;;;;;;;;;;;;22.02;51.99;101203.31;2074970;28;760;-47
2022/07/06 02:17:39;;;;;;;;;;;;;;;22.02;52.17;101203.31;2074967;28;990;-47
2022/07/06 02:18:39;;;;;;;;;;;;;;;21.99;53.41;101202.56;2074981;28;788;-47
2022/07/06 02:19:39;;;;;;;;;;;;;;;22.08;52.92;101204.03;2073838;28;978;-47
2022/07/06 02:20:40;;;;;;;;;;;;;;;22.06;53.11;101202.28;2074877;28;989;-47
2022/07/06 02:21:40;;;;;;;;;;;;;;;22.09;53.35;101205.81;2074967;28;851;-48
2022/07/06 02:22:40;;;;;;;;;;;;;;;22.10;53.97;101199.47;2074927;28;832;-49
2022/07/06 02:23:40;;;;;;;;;;;;;;;22.10;53.73;101199.47;2074920;28;696;-50
2022/07/06 02:24:40;;;;;;;;;;;;;;;22.17;54.09;101207.28;2073850;28;906;-48
2022/07/06 02:25:41;;;;;;;;;;;;;;;22.16;53.90;101202.84;2074899;28;982;-47
2022/07/06 02:26:41;;;;;;;;;;;;;;;22.20;54.47;101204.50;2074937;28;772;-48
2022/07/06 02:27:41;;;;;;;;;;;;;;;22.20;53.95;101201.78;2074934;28;910;-50
2022/07/06 02:28:41;;;;;;;;;;;;;;;22.18;53.99;101200.09;2074931;28;1041;-48
2022/07/06 02:29:41;;;;;;;;;;;;;;;22.14;54.94;101207.41;2073807;28;867;-48
2022/07/06 02:30:41;;;;;;;;;;;;;;;22.14;54.68;101201.13;2074951;28;770;-48
2022/07/06 02:31:41;;;;;;;;;;;;;;;22.10;55.74;101203.03;2074872;28;1045;-47
2022/07/06 02:32:42;;;;;;;;;;;;;;;22.05;55.39;101197.81;2074831;28;1890;-47
2022/07/06 02:33:42;;;;;;;;;;;;;;;22.09;55.44;101203.09;2074926;28;974;-48
2022/07/06 02:34:42;;;;;;;;;;;;;;;22.08;55.56;101199.50;2073846;28;1000;-47
2022/07/06 02:35:42;;;;;;;;;;;;;;;22.05;55.55;101192.41;2074878;28;1049;-47
2022/07/06 02:36:43;;;;;;;;;;;;;;;22.02;55.80;101197.06;2074860;28;790;-47
2022/07/06 02:37:43;;;;;;;;;;;;;;;22.04;55.55;101198.75;2074908;28;974;-49
2022/07/06 02:38:43;;;;;;;;;;;;;;;22.09;55.43;101189.63;2074796;28;1041;-51
2022/07/06 02:39:43;;;;;;;;;;;;;;;22.09;55.64;101198.59;2073825;28;1064;-48
2022/07/06 02:40:43;;;;;;;;;;;;;;;22.12;55.72;101197.59;2074829;28;848;-48
2022/07/06 02:41:43;;;;;;;;;;;;;;;22.15;55.38;101197.50;2074771;28;982;-48
2022/07/06 02:42:43;;;;;;;;;;;;;;;22.13;55.12;101200.25;2074864;28;1038;-52
2022/07/06 02:43:44;;;;;;;;;;;;;;;22.10;55.76;101192.25;2074671;28;834;-53
2022/07/06 02:44:44;;;;;;;;;;;;;;;22.08;55.45;101191.41;2073982;28;992;-47
2022/07/06 02:45:44;;;;;;;;;;;;;;;22.06;54.93;101193.31;2074897;28;910;-47
2022/07/06 02:46:44;;;;;;;;;;;;;;;22.03;55.40;101191.59;2074901;28;769;-48
2022/07/06 02:47:44;;;;;;;;;;;;;;;22.04;54.37;101190.66;2074903;28;856;-48
2022/07/06 02:48:44;;;;;;;;;;;;;;;22.01;54.51;101193.47;2073945;28;912;-47
2022/07/06 02:49:44;;;;;;;;;;;;;;;22.01;54.10;101192.59;2073569;28;938;-48
2022/07/06 02:50:45;;;;;;;;;;;;;;;21.99;53.94;101194.47;2074824;28;982;-47
2022/07/06 02:51:45;;;;;;;;;;;;;;;22.01;52.83;101185.38;2074848;28;851;-48
2022/07/06 02:52:45;;;;;;;;;;;;;;;22.01;53.45;101184.50;2074250;28;1886;-50
2022/07/06 02:53:45;;;;;;;;;;;;;;;22.01;53.04;101181.81;2073911;28;986;-50
2022/07/06 02:54:45;;;;;;;;;;;;;;;22.06;52.48;101183.41;2074017;28;822;-48
2022/07/06 02:55:45;;;;;;;;;;;;;;;22.06;51.68;101183.41;2074625;28;1241;-49
2022/07/06 02:56:50;;;;;;;;;;;;;;;22.06;51.06;101188.78;2074819;28;894;-47
2022/07/06 02:57:51;;;;;;;;;;;;;;;22.10;51.16;101186.00;2074978;28;769;-49
2022/07/06 02:58:51;;;;;;;;;;;;;;;22.06;50.94;101186.09;2074273;28;904;-48
2022/07/06 02:59:51;;;;;;;;;;;;;;;22.01;51.37;101185.38;2074315;28;978;-48
2022/07/06 03:00:51;;;;;;;;;;;;;;;21.96;50.58;101127.13;2074805;28;1010;-47
2022/07/06 03:01:51;;;;;;;;;;;;;;;21.94;50.99;101124.47;2074844;28;832;-47
2022/07/06 03:02:51;;;;;;;;;;;;;;;21.95;50.53;101128.06;2074838;28;1013;-48
2022/07/06 03:03:52;;;;;;;;;;;;;;;21.91;51.07;101125.47;2074355;28;962;-48
2022/07/06 03:04:52;;;;;;;;;;;;;;;21.94;50.50;101124.47;2074394;28;978;-49
2022/07/06 03:05:52;;;;;;;;;;;;;;;21.96;50.15;101116.34;2074838;28;772;-48
2022/07/06 03:06:52;;;;;;;;;;;;;;;22.00;50.22;101120.69;2074778;28;1002;-51
2022/07/06 03:07:52;;;;;;;;;;;;;;;22.02;50.14;101215.94;2074782;28;989;-48
2022/07/06 03:08:52;;;;;;;;;;;;;;;22.01;50.63;101214.16;2074151;28;1037;-50
2022/07/06 03:09:53;;;;;;;;;;;;;;;21.97;50.17;101189.09;2075823;28;871;-48
2022/07/06 03:10:53;;;;;;;;;;;;;;;21.94;50.26;101175.72;2076289;28;1034;-49
2022/07/06 03:11:53;;;;;;;;;;;;;;;21.95;50.07;101163.13;2076199;28;1910;-47
2022/07/06 03:12:53;;;;;;;;;;;;;;;21.90;50.72;101160.56;2076269;28;816;-48
2022/07/06 03:13:53;;;;;;;;;;;;;;;21.86;50.86;101154.41;2075571;28;1014;-49
2022/07/06 03:14:53;;;;;;;;;;;;;;;21.91;50.18;101162.34;2075945;28;981;-47
2022/07/06 03:15:54;;;;;;;;;;;;;;;21.86;50.89;101158.91;2076313;28;756;-48
2022/07/06 03:16:54;;;;;;;;;;;;;;;21.88;50.70;101165.13;2076303;28;813;-47
2022/07/06 03:17:54;;;;;;;;;;;;;;;21.88;50.97;101157.03;2076274;28;851;-48
2022/07/06 03:18:54;;;;;;;;;;;;;;;21.85;50.85;101165.22;2075481;28;830;-47
2022/07/06 03:19:55;;;;;;;;;;;;;;;21.84;51.05;101166.16;2075952;28;989;-48
2022/07/06 03:20:55;;;;;;;;;;;;;;;21.94;50.25;101170.31;2076262;28;986;-47
2022/07/06 03:21:55;;;;;;;;;;;;;;;21.94;50.65;101170.31;2076233;28;838;-48
2022/07/06 03:22:55;;;;;;;;;;;;;;;21.93;51.25;101168.56;2076237;28;775;-51
2022/07/06 03:23:55;;;;;;;;;;;;;;;21.97;51.71;101169.34;2075376;28;996;-49
2022/07/06 03:24:55;;;;;;;;;;;;;;;22.04;51.44;101166.38;2075933;28;993;-47
2022/07/06 03:25:55;;;;;;;;;;;;;;;22.06;50.82;101169.91;2076189;28;1048;-49
2022/07/06 03:26:56;;;;;;;;;;;;;;;22.05;51.43;101167.28;2076310;28;974;-48
2022/07/06 03:27:56;;;;;;;;;;;;;;;22.05;50.73;101164.59;2076304;28;744;-50
2022/07/06 03:28:56;;;;;;;;;;;;;;;22.00;51.38;101169.25;2075359;28;895;-49
2022/07/06 03:29:56;;;;;;;;;;;;;;;21.96;51.49;101173.84;2075886;28;970;-48
2022/07/06 03:30:56;;;;;;;;;;;;;;;21.93;51.27;101165.84;2076124;28;974;-47
2022/07/06 03:31:56;;;;;;;;;;;;;;;21.90;51.30;101155.19;2076115;28;1902;-48
2022/07/06 03:32:57;;;;;;;;;;;;;;;21.85;52.04;101165.22;2076151;28;780;-47
2022/07/06 03:33:57;;;;;;;;;;;;;;;21.85;51.94;101170.63;2075362;28;915;-48
2022/07/06 03:34:57;;;;;;;;;;;;;;;21.80;52.78;101165.41;2075997;28;975;-47
2022/07/06 03:35:57;;;;;;;;;;;;;;;21.79;52.14;101163.63;2076172;28;970;-48
2022/07/06 03:36:58;;;;;;;;;;;;;;;21.79;52.40;101170.81;2076115;28;965;-47
2022/07/06 03:37:58;;;;;;;;;;;;;;;21.76;52.19;101161.94;2076171;28;784;-52
2022/07/06 03:38:58;;;;;;;;;;;;;;;21.81;52.76;101163.56;2075139;28;866;-50
2022/07/06 03:39:58;;;;;;;;;;;;;;;21.84;52.31;101156.28;2076093;28;1218;-49
2022/07/06 03:40:58;;;;;;;;;;;;;;;21.91;52.12;101163.22;2076066;28;965;-49
2022/07/06 03:41:59;;;;;;;;;;;;;;;21.95;51.71;101164.00;2076068;28;969;-50
2022/07/06 03:42:59;;;;;;;;;;;;;;;21.95;51.68;101173.91;2076095;28;930;-50
2022/07/06 03:43:59;;;;;;;;;;;;;;;21.93;51.73;101165.84;2074955;28;986;-49
2022/07/06 03:44:59;;;;;;;;;;;;;;;21.89;52.63;101164.19;2076035;28;1017;-47
2022/07/06 03:45:59;;;;;;;;;;;;;;;21.87;52.88;101163.38;2076055;28;784;-48
2022/07/06 03:46:59;;;;;;;;;;;;;;;21.86;52.05;101162.50;2076031;28;978;-47
2022/07/06 03:48:00;;;;;;;;;;;;;;;21.85;52.20;101159.84;2076062;28;993;-47
2022/07/06 03:49:00;;;;;;;;;;;;;;;21.87;52.67;101164.25;2074882;28;992;-48
2022/07/06 03:50:00;;;;;;;;;;;;;;;21.84;53.01;101167.06;2076045;28;1038;-48
2022/07/06 03:51:00;;;;;;;;;;;;;;;21.85;52.50;101157.16;2076046;28;865;-47
2022/07/06 03:52:00;;;;;;;;;;;;;;;21.85;51.98;101157.16;2075987;28;1959;-47
2022/07/06 03:53:01;;;;;;;;;;;;;;;21.88;52.07;101159.75;2076013;28;981;-52
2022/07/06 03:54:01;;;;;;;;;;;;;;;21.89;51.59;101159.69;2074919;28;829;-48
2022/07/06 03:55:01;;;;;;;;;;;;;;;21.93;51.62;101155.06;2075940;28;1298;-48
2022/07/06 03:57:21;;;;;;;;;;;;;;;21.97;50.51;101159.44;2076008;28;598;-50
2022/07/06 03:58:21;;;;;;;;;;;;;;;22.00;50.18;101155.75;2075999;28;804;-49
2022/07/06 03:59:21;;;;;;;;;;;;;;;21.96;50.30;101160.38;2074867;28;1393;-49
2022/07/06 04:00:21;;;;;;;;;;;;;;;21.94;50.01;101159.53;2075911;28;855;-47
2022/07/06 04:01:22;;;;;;;;;;;;;;;21.93;50.13;101160.47;2075994;28;979;-48
2022/07/06 04:02:22;;;;;;;;;;;;;;;21.95;50.09;101163.13;2075904;28;819;-47
2022/07/06 04:03:22;;;;;;;;;;;;;;;22.71;48.68;101163.16;2075960;28;836;-48
2022/07/06 04:04:22;;;;;;;;;;;;;;;22.97;47.66;101170.28;2074788;28;986;-47
2022/07/06 04:05:23;;;;;;;;;;;;;;;23.10;47.20;101159.88;2075917;28;772;-47
2022/07/06 04:06:23;;;;;;;;;;;;;;;23.20;46.70;101161.28;2075925;28;850;-48
2022/07/06 04:07:23;;;;;;;;;;;;;;;23.31;46.14;101162.69;2075919;28;776;-47
2022/07/06 04:08:23;;;;;;;;;;;;;;;23.38;46.09;101164.22;2075873;28;780;-51
2022/07/06 04:09:23;;;;;;;;;;;;;;;23.47;46.04;101157.56;2074743;28;993;-50
2022/07/06 04:10:24;;;;;;;;;;;;;;;23.49;46.01;101161.97;2075902;28;800;-50
2022/07/06 04:11:24;;;;;;;;;;;;;;;23.60;45.89;101152.50;2075339;28;788;-49
2022/07/06 04:12:24;;;;;;;;;;;;;;;23.64;45.95;101146.03;2075201;28;1914;-49
2022/07/06 04:13:25;;;;;;;;;;;;;;;23.68;46.05;101155.78;2075771;28;1017;-48
2022/07/06 04:14:27;;;;;;;;;;;;;;;23.67;45.75;101152.22;2074700;28;830;-48
2022/07/06 04:15:27;;;;;;;;;;;;;;;23.71;45.82;101139.44;2075808;28;874;-48
2022/07/06 04:16:27;;;;;;;;;;;;;;;23.75;46.17;101148.31;2075796;28;579;-47
2022/07/06 04:18:46;;;;;;;;;;;;;;;23.76;45.98;101150.94;2075650;28;1003;-47
2022/07/06 04:19:46;;;;;;;;;;;;;;;23.79;46.31;101148.09;2075048;28;878;-47
2022/07/06 04:20:46;;;;;;;;;;;;;;;23.88;45.76;101151.38;2074755;28;843;-48
2022/07/06 04:21:46;;;;;;;;;;;;;;;23.93;45.46;101147.50;2075597;28;780;-47
2022/07/06 04:22:47;;;;;;;;;;;;;;;23.93;46.04;101147.50;2075760;28;974;-49
2022/07/06 04:23:47;;;;;;;;;;;;;;;23.91;45.95;101141.28;2075558;28;1157;-48
2022/07/06 04:24:47;;;;;;;;;;;;;;;23.92;46.03;101147.59;2074256;28;923;-48
2022/07/06 04:25:47;;;;;;;;;;;;;;;23.90;46.28;101149.47;2075153;28;985;-49
2022/07/06 04:26:47;;;;;;;;;;;;;;;23.90;46.85;101146.78;2075690;28;1045;-48
2022/07/06 04:27:47;;;;;;;;;;;;;;;23.88;46.91;101148.66;2075854;28;768;-48
2022/07/06 04:28:48;;;;;;;;;;;;;;;23.88;47.01;101145.97;2075402;28;894;-48
2022/07/06 04:29:48;;;;;;;;;;;;;;;23.92;46.84;101151.16;2074904;28;826;-48
2022/07/06 04:30:48;;;;;;;;;;;;;;;23.94;46.93;101145.69;2075684;28;1076;-46
2022/07/06 04:31:48;;;;;;;;;;;;;;;23.95;46.79;101151.03;2075691;28;749;-47
2022/07/06 04:32:48;;;;;;;;;;;;;;;23.97;46.64;101140.16;2074917;28;1886;-47
2022/07/06 04:33:48;;;;;;;;;;;;;;;23.95;47.85;101147.44;2074666;28;1033;-51
2022/07/06 04:34:48;;;;;;;;;;;;;;;24.00;46.88;101148.16;2074949;28;1063;-47
2022/07/06 04:35:49;;;;;;;;;;;;;;;23.98;47.13;101147.31;2075646;28;903;-47
2022/07/06 04:36:49;;;;;;;;;;;;;;;24.03;47.45;101152.56;2074969;28;891;-48
2022/07/06 04:37:49;;;;;;;;;;;;;;;24.01;47.32;101147.22;2075044;28;895;-50
2022/07/06 04:38:49;;;;;;;;;;;;;;;23.99;47.41;101143.72;2075166;28;881;-51
2022/07/06 04:39:49;;;;;;;;;;;;;;;24.04;47.26;101152.50;2075016;28;1021;-51
2022/07/06 04:40:50;;;;;;;;;;;;;;;24.04;47.15;101148.91;2075625;28;784;-48
2022/07/06 04:41:50;;;;;;;;;;;;;;;24.03;47.63;101152.56;2075715;28;1018;-48
2022/07/06 04:42:50;;;;;;;;;;;;;;;24.02;47.31;101154.41;2075576;28;777;-51
2022/07/06 04:43:50;;;;;;;;;;;;;;;24.01;47.50;101149.03;2075023;28;1032;-50
2022/07/06 04:44:51;;;;;;;;;;;;;;;24.01;47.82;101144.53;2074997;28;991;-48
2022/07/06 04:45:51;;;;;;;;;;;;;;;24.05;47.63;101146.16;2075583;28;847;-47
2022/07/06 04:46:51;;;;;;;;;;;;;;;24.06;48.11;101144.31;2075563;28;848;-47
2022/07/06 04:47:52;;;;;;;;;;;;;;;24.07;47.77;101152.38;2075533;28;915;-48
2022/07/06 04:48:52;;;;;;;;;;;;;;;24.09;47.96;101146.88;2074945;28;846;-47
2022/07/06 04:49:52;;;;;;;;;;;;;;;24.13;48.04;101143.09;2075030;28;870;-47
2022/07/06 04:50:52;;;;;;;;;;;;;;;24.20;47.82;101141.88;2074873;28;1629;-50
2022/07/06 04:51:52;;;;;;;;;;;;;;;24.19;48.45;101136.53;2074892;28;1947;-49
2022/07/06 04:52:52;;;;;;;;;;;;;;;24.12;48.86;101139.53;2075511;28;729;-50
2022/07/06 04:53:52;;;;;;;;;;;;;;;24.13;48.89;101133.16;2074960;28;1021;-49
2022/07/06 04:54:54;;;;;;;;;;;;;;;24.12;49.10;101139.53;2075029;28;868;-49
2022/07/06 04:55:54;;;;;;;;;;;;;;;24.08;49.07;101146.03;2075346;28;1059;-47
2022/07/06 04:56:54;;;;;;;;;;;;;;;24.15;49.52;101143.00;2075484;28;846;-48
2022/07/06 04:57:54;;;;;;;;;;;;;;;24.12;49.40;101144.94;2075497;28;773;-50
2022/07/06 04:58:55;;;;;;;;;;;;;;;24.15;49.94;101153.84;2074809;28;877;-49
2022/07/06 04:59:55;;;;;;;;;;;;;;;24.15;50.34;101146.63;2075241;28;873;-47
2022/07/06 05:00:55;;;;;;;;;;;;;;;24.16;50.49;101144.78;2075446;28;862;-47
2022/07/06 05:01:55;;;;;;;;;;;;;;;24.14;50.10;101139.44;2075457;28;914;-47
2022/07/06 05:02:56;;;;;;;;;;;;;;;24.16;50.37;101140.25;2075448;28;1013;-48
2022/07/06 05:03:56;;;;;;;;;;;;;;;24.19;50.53;101141.94;2074715;28;1044;-50
2022/07/06 05:04:56;;;;;;;;;;;;;;;24.13;50.16;101141.28;2075297;28;830;-51
2022/07/06 05:05:56;;;;;;;;;;;;;;;24.10;50.49;101151.34;2075403;28;985;-49
2022/07/06 05:06:56;;;;;;;;;;;;;;;24.16;50.55;101137.56;2075362;28;918;-49
2022/07/06 05:07:57;;;;;;;;;;;;;;;24.21;49.87;101134.63;2075436;28;775;-49
2022/07/06 05:08:59;;;;;;;;;;;;;;;24.15;50.13;101133.09;2074521;28;974;-52
2022/07/06 05:09:59;;;;;;;;;;;;;;;24.21;49.37;101123.81;2067257;28;859;-48
2022/07/06 05:10:59;;;;;;;;;;;;;;;24.26;49.01;101127.19;2067287;28;1162;-47
2022/07/06 05:12:00;;;;;;;;;;;;;;;24.20;49.53;101124.75;2067174;28;1914;-48
2022/07/06 05:13:00;;;;;;;;;;;;;;;24.17;48.93;101125.78;2067272;28;796;-48
2022/07/06 05:14:00;;;;;;;;;;;;;;;24.25;48.46;101126.31;2068381;28;1020;-47
2022/07/06 05:15:00;;;;;;;;;;;;;;;24.23;48.23;101111.06;2075412;28;906;-48
2022/07/06 05:16:01;;;;;;;;;;;;;;;24.20;48.27;101119.34;2075436;28;840;-47
2022/07/06 05:17:01;;;;;;;;;;;;;;;24.23;47.17;101114.69;2074817;28;888;-47
2022/07/06 05:18:01;;;;;;;;;;;;;;;24.23;46.88;101109.28;2074753;28;1028;-47
2022/07/06 05:19:01;;;;;;;;;;;;;;;24.26;46.42;101121.78;2074239;28;1055;-48
2022/07/06 05:20:01;;;;;;;;;;;;;;;24.27;46.48;101112.69;2075357;28;811;-49